createdAt,value
2018-09-17T00:00:43.827Z,92.55
2018-09-17T00:01:43.829Z,92.26
2018-09-17T00:02:43.821Z,92.26
2018-09-17T00:03:43.819Z,92.07
2018-09-17T00:04:43.819Z,92.17
2018-09-17T00:05:43.815Z,92.55
2018-09-17T00:06:43.814Z,92.74
2018-09-17T00:07:43.810Z,93.12
2018-09-17T00:08:43.808Z,92.93
2018-09-17T00:09:43.805Z,92.93
2018-09-17T00:10:43.803Z,93.51
2018-09-17T00:11:43.801Z,93.41
2018-09-17T00:12:43.801Z,93.22
2018-09-17T00:13:43.796Z,93.88
2018-09-17T00:14:43.793Z,94.36
2018-09-17T00:15:43.794Z,93.60
2018-09-17T00:16:43.788Z,93.70
2018-09-17T00:17:43.786Z,93.79
2018-09-17T00:18:43.784Z,93.79
2018-09-17T00:19:43.779Z,92.93
2018-09-17T00:20:43.779Z,93.22
2018-09-17T00:21:43.776Z,93.02
2018-09-17T00:22:43.774Z,93.12
2018-09-17T00:23:43.770Z,93.60
2018-09-17T00:24:43.768Z,93.12
2018-09-17T00:25:43.767Z,93.60
2018-09-17T00:26:43.764Z,93.60
2018-09-17T00:27:43.760Z,93.41
2018-09-17T00:28:43.761Z,93.41
2018-09-17T00:29:43.756Z,94.56
2018-09-17T00:30:43.754Z,94.36
2018-09-17T00:31:43.750Z,94.17
2018-09-17T00:32:43.748Z,94.17
2018-09-17T00:33:43.746Z,94.27
2018-09-17T00:34:43.744Z,94.07
2018-09-17T00:35:43.740Z,93.70
2018-09-17T00:36:43.739Z,93.88
2018-09-17T00:37:43.736Z,94.27
2018-09-17T00:38:43.733Z,94.17
2018-09-17T00:39:43.732Z,94.36
2018-09-17T00:40:43.729Z,94.17
2018-09-17T00:41:43.730Z,94.36
2018-09-17T00:42:43.724Z,93.70
2018-09-17T00:43:43.719Z,93.70
2018-09-17T00:44:43.718Z,93.79
2018-09-17T00:45:43.715Z,93.70
2018-09-17T00:46:43.713Z,93.70
2018-09-17T00:47:43.709Z,94.36
2018-09-17T00:48:43.707Z,94.65
2018-09-17T00:49:43.709Z,94.93
2018-09-17T00:50:43.702Z,94.56
2018-09-17T00:51:43.699Z,94.46
2018-09-17T00:52:43.697Z,94.36
2018-09-17T00:53:43.695Z,94.27
2018-09-17T00:54:43.691Z,93.88
2018-09-17T00:55:43.689Z,94.27
2018-09-17T00:56:43.686Z,93.51
2018-09-17T00:57:43.699Z,93.88
2018-09-17T00:58:43.681Z,93.88
2018-09-17T00:59:43.679Z,94.36
2018-09-17T01:00:43.676Z,94.27
2018-09-17T01:01:43.674Z,94.36
2018-09-17T01:02:43.671Z,94.17
2018-09-17T01:03:43.667Z,94.32
2018-09-17T01:04:43.665Z,94.27
2018-09-17T01:05:43.662Z,94.22
2018-09-17T01:06:43.659Z,94.84
2018-09-17T01:07:43.657Z,94.79
2018-09-17T01:08:43.654Z,94.93
2018-09-17T01:09:43.651Z,94.79
2018-09-17T01:10:43.647Z,94.51
2018-09-17T01:11:43.646Z,94.60
2018-09-17T01:12:43.643Z,94.70
2018-09-17T01:13:43.639Z,94.60
2018-09-17T01:14:43.637Z,94.70
2018-09-17T01:15:43.635Z,94.79
2018-09-17T01:16:43.632Z,95.08
2018-09-17T01:17:43.630Z,94.98
2018-09-17T01:18:43.625Z,95.56
2018-09-17T01:19:43.624Z,94.89
2018-09-17T01:20:43.619Z,94.79
2018-09-17T01:21:43.618Z,94.60
2018-09-17T01:22:43.615Z,95.37
2018-09-17T01:23:43.613Z,95.46
2018-09-17T01:24:43.611Z,95.46
2018-09-17T01:25:43.606Z,94.98
2018-09-17T01:26:43.607Z,94.89
2018-09-17T01:27:43.600Z,95.56
2018-09-17T01:28:43.599Z,95.37
2018-09-17T01:29:43.595Z,95.37
2018-09-17T01:30:43.591Z,94.98
2018-09-17T01:31:43.588Z,94.89
2018-09-17T01:32:43.591Z,94.79
2018-09-17T01:33:43.584Z,94.98
2018-09-17T01:34:43.581Z,94.79
2018-09-17T01:35:43.578Z,95.46
2018-09-17T01:36:43.575Z,95.27
2018-09-17T01:37:43.574Z,95.37
2018-09-17T01:38:43.568Z,95.65
2018-09-17T01:39:43.567Z,95.37
2018-09-17T01:40:43.563Z,95.37
2018-09-17T01:41:43.560Z,95.27
2018-09-17T01:42:43.557Z,96.41
2018-09-17T01:43:43.554Z,96.51
2018-09-17T01:44:43.552Z,95.37
2018-09-17T01:45:43.549Z,95.27
2018-09-17T01:46:43.545Z,95.46
2018-09-17T01:47:43.543Z,95.65
2018-09-17T01:48:43.542Z,95.46
2018-09-17T01:49:43.537Z,96.41
2018-09-17T01:50:43.533Z,95.46
2018-09-17T01:51:43.533Z,95.56
2018-09-17T01:52:43.533Z,95.56
2018-09-17T01:53:43.526Z,95.17
2018-09-17T01:54:43.522Z,95.65
2018-09-17T01:55:43.520Z,95.56
2018-09-17T01:56:43.517Z,95.46
2018-09-17T01:57:43.514Z,96.32
2018-09-17T01:58:43.511Z,96.13
2018-09-17T01:59:43.509Z,95.37
2018-09-17T02:00:43.506Z,95.61
2018-09-17T02:01:43.503Z,95.46
2018-09-17T02:02:43.498Z,95.03
2018-09-17T02:03:43.496Z,95.41
2018-09-17T02:04:43.492Z,95.61
2018-09-17T02:05:43.490Z,95.22
2018-09-17T02:06:43.486Z,95.51
2018-09-17T02:07:43.484Z,96.36
2018-09-17T02:08:43.481Z,96.46
2018-09-17T02:09:43.540Z,96.46
2018-09-17T02:10:43.479Z,96.08
2018-09-17T02:11:43.471Z,96.36
2018-09-17T02:12:43.469Z,96.32
2018-09-17T02:13:43.474Z,96.36
2018-09-17T02:14:43.463Z,96.75
2018-09-17T02:15:43.459Z,96.08
2018-09-17T02:16:43.457Z,95.98
2018-09-17T02:17:43.456Z,96.89
2018-09-17T02:18:43.450Z,96.17
2018-09-17T02:19:43.447Z,96.27
2018-09-17T02:20:43.443Z,96.36
2018-09-17T02:21:43.441Z,96.36
2018-09-17T02:22:43.437Z,96.56
2018-09-17T02:23:43.434Z,96.17
2018-09-17T02:24:43.432Z,96.65
2018-09-17T02:25:43.429Z,96.65
2018-09-17T02:26:43.426Z,96.75
2018-09-17T02:27:43.422Z,96.94
2018-09-17T02:28:43.419Z,97.70
2018-09-17T02:29:43.416Z,97.22
2018-09-17T02:30:43.411Z,97.22
2018-09-17T02:31:43.408Z,96.94
2018-09-17T02:32:43.409Z,96.84
2018-09-17T02:33:43.402Z,96.27
2018-09-17T02:34:43.399Z,96.17
2018-09-17T02:35:43.399Z,96.56
2018-09-17T02:36:43.394Z,96.17
2018-09-17T02:37:43.391Z,96.56
2018-09-17T02:38:43.386Z,96.75
2018-09-17T02:39:43.382Z,96.56
2018-09-17T02:40:43.380Z,96.56
2018-09-17T02:41:43.383Z,97.03
2018-09-17T02:42:43.374Z,96.94
2018-09-17T02:43:43.372Z,97.03
2018-09-17T02:44:43.366Z,97.03
2018-09-17T02:45:43.363Z,96.36
2018-09-17T02:46:43.359Z,96.75
2018-09-17T02:47:43.357Z,96.84
2018-09-17T02:48:43.354Z,97.70
2018-09-17T02:49:43.350Z,97.32
2018-09-17T02:50:43.350Z,97.89
2018-09-17T02:51:43.344Z,98.56
2018-09-17T02:52:43.344Z,98.27
2018-09-17T02:53:43.409Z,97.70
2018-09-17T02:54:43.333Z,96.94
2018-09-17T02:55:43.331Z,96.36
2018-09-17T02:56:43.328Z,96.75
2018-09-17T02:57:43.325Z,96.75
2018-09-17T02:58:43.320Z,96.94
2018-09-17T02:59:43.318Z,97.89
2018-09-17T03:00:43.314Z,97.80
2018-09-17T03:01:43.319Z,97.61
2018-09-17T03:02:43.307Z,97.13
2018-09-17T03:03:43.307Z,98.46
2018-09-17T03:04:43.301Z,97.89
2018-09-17T03:05:43.297Z,97.89
2018-09-17T03:06:43.299Z,97.22
2018-09-17T03:07:43.291Z,97.99
2018-09-17T03:08:43.288Z,97.89
2018-09-17T03:09:43.283Z,98.08
2018-09-17T03:10:43.280Z,98.36
2018-09-17T03:11:43.280Z,97.89
2018-09-17T03:12:43.275Z,97.41
2018-09-17T03:13:43.271Z,97.89
2018-09-17T03:14:43.269Z,98.27
2018-09-17T03:15:43.262Z,99.41
2018-09-17T03:16:43.260Z,99.04
2018-09-17T03:17:43.257Z,99.04
2018-09-17T03:18:43.254Z,98.18
2018-09-17T03:19:43.250Z,97.89
2018-09-17T03:20:43.246Z,97.61
2018-09-17T03:21:43.244Z,98.18
2018-09-17T03:22:43.240Z,99.22
2018-09-17T03:23:43.236Z,99.04
2018-09-17T03:24:43.232Z,98.46
2018-09-17T03:25:43.229Z,98.08
2018-09-17T03:26:43.225Z,98.36
2018-09-17T03:27:43.223Z,98.75
2018-09-17T03:28:43.219Z,97.51
2018-09-17T03:29:43.215Z,98.27
2018-09-17T03:30:43.211Z,98.27
2018-09-17T03:31:43.208Z,98.18
2018-09-17T03:32:43.208Z,98.46
2018-09-17T03:33:43.202Z,98.36
2018-09-17T03:34:43.198Z,99.32
2018-09-17T03:35:43.195Z,99.22
2018-09-17T03:36:43.192Z,99.22
2018-09-17T03:37:43.188Z,99.22
2018-09-17T03:38:43.185Z,98.94
2018-09-17T03:39:43.181Z,99.55
2018-09-17T03:40:43.177Z,98.99
2018-09-17T03:41:43.173Z,99.08
2018-09-17T03:42:43.170Z,99.55
2018-09-17T03:43:43.174Z,99.55
2018-09-17T03:44:43.164Z,99.27
2018-09-17T03:45:43.161Z,99.55
2018-09-17T03:46:43.348Z,99.55
2018-09-17T03:47:43.152Z,99.08
2018-09-17T03:48:43.152Z,99.99
2018-09-17T03:49:43.147Z,99.75
2018-09-17T03:50:43.142Z,99.99
2018-09-17T03:51:43.138Z,99.99
2018-09-17T03:52:43.136Z,99.51
2018-09-17T03:53:43.132Z,99.46
2018-09-17T03:54:43.130Z,98.79
2018-09-17T03:55:43.124Z,99.46
2018-09-17T03:56:43.120Z,99.27
2018-09-17T03:57:43.120Z,99.46
2018-09-17T03:58:43.115Z,99.27
2018-09-17T03:59:43.110Z,99.75
2018-09-17T04:00:43.108Z,99.37
2018-09-17T04:01:43.104Z,98.99
2018-09-17T04:02:43.099Z,99.55
2018-09-17T04:03:43.096Z,99.99
2018-09-17T04:04:43.093Z,99.99
2018-09-17T04:05:43.091Z,99.37
2018-09-17T04:06:43.124Z,99.99
2018-09-17T04:07:43.082Z,99.99
2018-09-17T04:08:43.105Z,99.99
2018-09-17T04:09:43.075Z,99.99
2018-09-17T04:10:43.071Z,99.99
2018-09-17T04:11:43.078Z,99.99
2018-09-17T04:12:43.064Z,99.75
2018-09-17T04:13:43.062Z,99.99
2018-09-17T04:14:43.057Z,99.99
2018-09-17T04:15:43.053Z,99.99
2018-09-17T04:16:43.050Z,99.99
2018-09-17T04:17:43.048Z,99.99
2018-09-17T04:18:43.043Z,99.99
2018-09-17T04:19:43.039Z,99.99
2018-09-17T04:20:43.037Z,99.99
2018-09-17T04:21:43.033Z,99.99
2018-09-17T04:22:43.029Z,99.99
2018-09-17T04:23:43.025Z,99.99
2018-09-17T04:24:43.021Z,99.99
2018-09-17T04:25:43.020Z,99.99
2018-09-17T04:26:43.019Z,99.99
2018-09-17T04:27:43.011Z,99.99
2018-09-17T04:28:43.007Z,99.99
2018-09-17T04:29:43.004Z,99.99
2018-09-17T04:30:43.000Z,99.99
2018-09-17T04:31:43.091Z,99.99
2018-09-17T04:32:42.992Z,99.99
2018-09-17T04:33:42.992Z,99.99
2018-09-17T04:34:42.984Z,99.99
2018-09-17T04:35:42.980Z,99.99
2018-09-17T04:36:42.978Z,99.99
2018-09-17T04:37:42.974Z,99.99
2018-09-17T04:38:42.969Z,99.99
2018-09-17T04:39:42.974Z,99.99
2018-09-17T04:40:42.963Z,99.99
2018-09-17T04:41:42.959Z,99.84
2018-09-17T04:42:42.955Z,99.99
2018-09-17T04:43:42.952Z,99.75
2018-09-17T04:44:42.948Z,99.99
2018-09-17T04:45:42.945Z,99.99
2018-09-17T04:46:42.939Z,99.99
2018-09-17T04:47:42.937Z,99.99
2018-09-17T04:48:42.934Z,99.99
2018-09-17T04:49:42.930Z,99.99
2018-09-17T04:50:42.925Z,99.99
2018-09-17T04:51:42.921Z,99.99
2018-09-17T04:52:42.918Z,99.99
2018-09-17T04:53:42.915Z,99.99
2018-09-17T04:54:42.911Z,99.99
2018-09-17T04:55:42.906Z,99.99
2018-09-17T04:56:42.902Z,99.99
2018-09-17T04:57:42.899Z,99.99
2018-09-17T04:58:42.894Z,99.99
2018-09-17T04:59:42.894Z,99.99
2018-09-17T05:00:42.888Z,99.99
2018-09-17T05:01:42.886Z,99.99
2018-09-17T05:02:42.880Z,99.99
2018-09-17T05:03:42.876Z,99.99
2018-09-17T05:04:42.874Z,99.99
2018-09-17T05:05:42.871Z,99.99
2018-09-17T05:06:42.865Z,99.99
2018-09-17T05:07:42.863Z,99.99
2018-09-17T05:08:42.857Z,99.99
2018-09-17T05:09:42.855Z,99.99
2018-09-17T05:10:42.850Z,99.99
2018-09-17T05:11:42.846Z,99.99
2018-09-17T05:12:42.842Z,99.99
2018-09-17T05:13:42.840Z,99.99
2018-09-17T05:14:42.834Z,99.99
2018-09-17T05:15:42.830Z,99.99
2018-09-17T05:16:42.827Z,99.99
2018-09-17T05:17:42.824Z,99.99
2018-09-17T05:18:42.820Z,99.99
2018-09-17T05:19:42.816Z,99.99
2018-09-17T05:20:42.861Z,99.99
2018-09-17T05:21:42.809Z,99.99
2018-09-17T05:22:42.804Z,99.99
2018-09-17T05:23:42.801Z,99.99
2018-09-17T05:24:42.798Z,99.99
2018-09-17T05:25:42.795Z,99.99
2018-09-17T05:26:42.835Z,99.99
2018-09-17T05:27:42.787Z,99.99
2018-09-17T05:28:42.782Z,99.99
2018-09-17T05:29:42.779Z,99.99
2018-09-17T05:30:42.776Z,99.99
2018-09-17T05:31:42.771Z,99.99
2018-09-17T05:32:42.767Z,99.99
2018-09-17T05:33:42.765Z,99.99
2018-09-17T05:34:42.761Z,99.99
2018-09-17T05:35:42.756Z,99.99
2018-09-17T05:36:42.754Z,99.99
2018-09-17T05:37:42.749Z,99.99
2018-09-17T05:38:42.744Z,99.99
2018-09-17T05:39:42.741Z,99.99
2018-09-17T05:40:42.741Z,99.99
2018-09-17T05:41:42.736Z,99.99
2018-09-17T05:42:42.730Z,99.99
2018-09-17T05:43:42.727Z,99.99
2018-09-17T05:44:42.723Z,99.99
2018-09-17T05:45:42.723Z,99.99
2018-09-17T05:46:42.716Z,99.99
2018-09-17T05:47:42.712Z,99.99
2018-09-17T05:48:42.711Z,99.99
2018-09-17T05:49:42.706Z,99.99
2018-09-17T05:50:42.703Z,99.99
2018-09-17T05:51:42.698Z,99.99
2018-09-17T05:52:42.696Z,99.99
2018-09-17T05:53:42.749Z,99.99
2018-09-17T05:54:42.687Z,99.99
2018-09-17T05:55:42.685Z,99.99
2018-09-17T05:56:42.684Z,99.99
2018-09-17T05:57:42.679Z,99.99
2018-09-17T05:58:42.674Z,99.99
2018-09-17T05:59:42.735Z,99.99
2018-09-17T06:00:42.667Z,99.99
2018-09-17T06:01:42.665Z,99.99
2018-09-17T06:02:42.661Z,99.99
2018-09-17T06:03:42.657Z,99.99
2018-09-17T06:04:42.652Z,99.99
2018-09-17T06:05:42.727Z,99.99
2018-09-17T06:06:42.646Z,99.99
2018-09-17T06:07:42.642Z,99.99
2018-09-17T06:08:42.640Z,99.99
2018-09-17T06:09:42.680Z,99.99
2018-09-17T06:10:42.632Z,99.99
2018-09-17T06:11:42.632Z,99.99
2018-09-17T06:12:42.626Z,99.99
2018-09-17T06:13:42.623Z,99.99
2018-09-17T06:14:42.691Z,99.99
2018-09-17T06:15:42.616Z,99.99
2018-09-17T06:16:42.613Z,99.99
2018-09-17T06:17:42.610Z,99.99
2018-09-17T06:18:42.604Z,99.99
2018-09-17T06:19:42.602Z,99.99
2018-09-17T06:20:42.599Z,99.99
2018-09-17T06:21:42.597Z,99.99
2018-09-17T06:22:42.593Z,99.99
2018-09-17T06:23:42.590Z,99.99
2018-09-17T06:24:42.585Z,99.99
2018-09-17T06:25:42.584Z,99.99
2018-09-17T06:26:42.631Z,99.99
2018-09-17T06:27:42.576Z,99.99
2018-09-17T06:28:42.630Z,99.99
2018-09-17T06:29:42.571Z,99.99
2018-09-17T06:30:42.568Z,99.99
2018-09-17T06:31:42.564Z,99.99
2018-09-17T06:32:42.562Z,99.99
2018-09-17T06:33:42.558Z,99.99
2018-09-17T06:34:42.554Z,99.99
2018-09-17T06:35:42.552Z,99.99
2018-09-17T06:36:42.551Z,99.99
2018-09-17T06:37:42.551Z,99.99
2018-09-17T06:38:42.542Z,99.99
2018-09-17T06:39:42.538Z,99.99
2018-09-17T06:40:42.536Z,99.99
2018-09-17T06:41:42.538Z,99.99
2018-09-17T06:42:42.529Z,99.99
2018-09-17T06:43:42.527Z,99.99
2018-09-17T06:44:42.525Z,99.99
2018-09-17T06:45:42.522Z,99.99
2018-09-17T06:46:42.519Z,99.99
2018-09-17T06:47:42.516Z,99.99
2018-09-17T06:48:42.513Z,99.99
2018-09-17T06:49:42.510Z,99.99
2018-09-17T06:50:42.508Z,99.99
2018-09-17T06:51:42.505Z,99.99
2018-09-17T06:52:42.503Z,99.99
2018-09-17T06:53:42.517Z,99.99
2018-09-17T06:54:42.497Z,99.99
2018-09-17T06:55:42.496Z,99.99
2018-09-17T06:56:42.491Z,99.99
2018-09-17T06:57:42.490Z,99.99
2018-09-17T06:58:42.486Z,99.99
2018-09-17T06:59:42.483Z,99.99
2018-09-17T07:00:42.480Z,99.99
2018-09-17T07:01:42.479Z,99.99
2018-09-17T07:02:42.478Z,99.66
2018-09-17T07:03:42.475Z,99.66
2018-09-17T07:04:42.468Z,99.09
2018-09-17T07:05:42.469Z,98.33
2018-09-17T07:06:42.467Z,97.37
2018-09-17T07:07:42.509Z,96.94
2018-09-17T07:08:42.461Z,95.51
2018-09-17T07:09:42.458Z,94.70
2018-09-17T07:10:42.456Z,94.02
2018-09-17T07:11:42.455Z,93.45
2018-09-17T07:12:42.454Z,92.30
2018-09-17T07:13:42.449Z,92.35
2018-09-17T07:14:42.447Z,91.97
2018-09-17T07:15:42.446Z,92.06
2018-09-17T07:16:42.443Z,91.87
2018-09-17T07:17:42.441Z,91.77
2018-09-17T07:18:42.438Z,91.20
2018-09-17T07:19:42.436Z,91.58
2018-09-17T07:20:42.435Z,90.82
2018-09-17T07:21:42.434Z,90.24
2018-09-17T07:22:42.433Z,90.15
2018-09-17T07:23:42.428Z,89.95
2018-09-17T07:24:42.427Z,89.90
2018-09-17T07:25:42.425Z,90.09
2018-09-17T07:26:42.427Z,88.85
2018-09-17T07:27:42.421Z,89.23
2018-09-17T07:28:42.420Z,88.56
2018-09-17T07:29:42.419Z,88.32
2018-09-17T07:30:42.415Z,87.37
2018-09-17T07:31:42.414Z,86.88
2018-09-17T07:32:42.415Z,87.08
2018-09-17T07:33:42.412Z,86.31
2018-09-17T07:34:42.408Z,86.50
2018-09-17T07:35:42.408Z,86.31
2018-09-17T07:36:42.406Z,86.35
2018-09-17T07:37:42.405Z,86.25
2018-09-17T07:38:42.403Z,86.07
2018-09-17T07:39:42.403Z,85.82
2018-09-17T07:40:42.400Z,85.15
2018-09-17T07:41:42.397Z,84.48
2018-09-17T07:42:42.417Z,83.81
2018-09-17T07:43:42.396Z,84.52
2018-09-17T07:44:42.396Z,83.37
2018-09-17T07:45:42.397Z,83.85
2018-09-17T07:46:42.393Z,83.08
2018-09-17T07:47:42.394Z,82.89
2018-09-17T07:48:42.392Z,82.51
2018-09-17T07:49:42.392Z,82.60
2018-09-17T07:50:42.389Z,82.89
2018-09-17T07:51:42.389Z,83.18
2018-09-17T07:52:42.451Z,82.51
2018-09-17T07:53:42.397Z,82.60
2018-09-17T07:54:42.387Z,82.79
2018-09-17T07:55:42.386Z,82.70
2018-09-17T07:56:42.387Z,82.45
2018-09-17T07:57:42.389Z,82.35
2018-09-17T07:58:42.384Z,82.26
2018-09-17T07:59:42.385Z,82.16
2018-09-17T08:00:42.389Z,81.68
2018-09-17T08:01:42.388Z,80.91
2018-09-17T08:02:42.385Z,81.10
2018-09-17T08:03:42.385Z,80.53
2018-09-17T08:04:42.385Z,80.96
2018-09-17T08:05:42.472Z,80.66
2018-09-17T08:06:42.386Z,81.53
2018-09-17T08:07:42.386Z,80.86
2018-09-17T08:08:42.386Z,80.86
2018-09-17T08:09:42.385Z,80.76
2018-09-17T08:10:42.385Z,81.24
2018-09-17T08:11:42.387Z,80.96
2018-09-17T08:12:42.386Z,80.96
2018-09-17T08:13:42.388Z,80.86
2018-09-17T08:14:42.389Z,80.86
2018-09-17T08:15:42.389Z,80.96
2018-09-17T08:16:42.388Z,81.05
2018-09-17T08:17:42.391Z,81.24
2018-09-17T08:18:42.390Z,81.63
2018-09-17T08:19:42.397Z,81.15
2018-09-17T08:20:42.392Z,80.86
2018-09-17T08:21:42.393Z,80.96
2018-09-17T08:22:42.395Z,81.34
2018-09-17T08:23:42.396Z,81.34
2018-09-17T08:24:42.397Z,81.28
2018-09-17T08:25:42.397Z,80.71
2018-09-17T08:26:42.398Z,80.42
2018-09-17T08:27:42.402Z,80.80
2018-09-17T08:28:42.406Z,80.32
2018-09-17T08:29:42.404Z,80.32
2018-09-17T08:30:42.402Z,79.84
2018-09-17T08:31:42.407Z,80.13
2018-09-17T08:32:42.405Z,79.94
2018-09-17T08:33:42.407Z,80.04
2018-09-17T08:34:42.412Z,79.46
2018-09-17T08:35:42.409Z,79.55
2018-09-17T08:36:42.411Z,79.40
2018-09-17T08:37:42.417Z,78.25
2018-09-17T08:38:42.415Z,77.96
2018-09-17T08:39:42.415Z,77.58
2018-09-17T08:40:42.416Z,77.38
2018-09-17T08:41:42.419Z,76.56
2018-09-17T08:42:42.419Z,76.56
2018-09-17T08:43:42.422Z,76.75
2018-09-17T08:44:42.422Z,75.88
2018-09-17T08:45:42.448Z,75.88
2018-09-17T08:46:42.427Z,76.31
2018-09-17T08:47:42.428Z,76.11
2018-09-17T08:48:42.430Z,75.38
2018-09-17T08:49:42.432Z,73.97
2018-09-17T08:50:42.433Z,72.66
2018-09-17T08:51:42.440Z,70.96
2018-09-17T08:52:42.477Z,69.74
2018-09-17T08:53:42.443Z,68.91
2018-09-17T08:54:42.445Z,67.94
2018-09-17T08:55:42.450Z,67.20
2018-09-17T08:56:42.454Z,66.17
2018-09-17T08:57:42.460Z,65.69
2018-09-17T08:58:42.463Z,65.08
2018-09-17T08:59:42.469Z,66.24
2018-09-17T09:00:42.474Z,66.49
2018-09-17T09:01:42.481Z,66.40
2018-09-17T09:02:42.487Z,66.97
2018-09-17T09:03:42.491Z,66.66
2018-09-17T09:04:42.498Z,67.55
2018-09-17T09:05:42.505Z,66.78
2018-09-17T09:06:42.510Z,66.40
2018-09-17T09:07:42.518Z,67.43
2018-09-17T09:08:42.524Z,67.27
2018-09-17T09:09:42.532Z,66.82
2018-09-17T09:10:42.539Z,65.50
2018-09-17T09:11:42.545Z,64.27
2018-09-17T09:12:42.551Z,63.34
2018-09-17T09:13:42.561Z,61.98
2018-09-17T09:14:42.566Z,62.24
2018-09-17T09:15:42.574Z,62.63
2018-09-17T09:16:42.583Z,62.37
2018-09-17T09:17:42.591Z,61.89
2018-09-17T09:18:42.597Z,61.15
2018-09-17T09:19:42.663Z,60.57
2018-09-17T09:20:42.613Z,61.11
2018-09-17T09:21:42.622Z,61.33
2018-09-17T09:22:42.635Z,61.43
2018-09-17T09:23:42.640Z,60.95
2018-09-17T09:24:42.650Z,61.11
2018-09-17T09:25:42.659Z,61.92
2018-09-17T09:26:42.668Z,61.24
2018-09-17T09:27:42.677Z,60.57
2018-09-17T09:28:42.687Z,61.89
2018-09-17T09:29:42.696Z,61.76
2018-09-17T09:30:42.728Z,61.79
2018-09-17T09:31:42.715Z,61.18
2018-09-17T09:32:42.725Z,59.94
2018-09-17T09:33:42.734Z,58.75
2018-09-17T09:34:42.742Z,58.39
2018-09-17T09:35:42.754Z,57.68
2018-09-17T09:36:42.762Z,56.71
2018-09-17T09:37:42.786Z,56.39
2018-09-17T09:38:42.783Z,57.14
2018-09-17T09:39:42.800Z,58.37
2018-09-17T09:40:42.804Z,59.23
2018-09-17T09:41:42.814Z,59.40
2018-09-17T09:42:42.824Z,60.92
2018-09-17T09:43:42.837Z,61.15
2018-09-17T09:44:42.846Z,61.46
2018-09-17T09:45:42.857Z,60.30
2018-09-17T09:46:42.868Z,59.43
2018-09-17T09:47:42.878Z,58.20
2018-09-17T09:48:42.889Z,58.04
2018-09-17T09:49:42.899Z,58.65
2018-09-17T09:50:42.910Z,58.47
2018-09-17T09:51:42.919Z,58.47
2018-09-17T09:52:43.002Z,58.47
2018-09-17T09:53:42.944Z,59.31
2018-09-17T09:54:42.952Z,58.95
2018-09-17T09:55:42.963Z,58.01
2018-09-17T09:56:42.974Z,56.77
2018-09-17T09:57:42.985Z,56.29
2018-09-17T09:58:42.996Z,56.00
2018-09-17T09:59:43.056Z,56.32
2018-09-17T10:00:43.016Z,55.16
2018-09-17T10:01:43.026Z,54.41
2018-09-17T10:02:43.036Z,53.34
2018-09-17T10:03:43.047Z,53.34
2018-09-17T10:04:43.062Z,53.05
2018-09-17T10:05:43.070Z,52.40
2018-09-17T10:06:43.080Z,51.98
2018-09-17T10:07:43.091Z,52.95
2018-09-17T10:08:43.101Z,52.34
2018-09-17T10:09:43.113Z,52.44
2018-09-17T10:10:43.129Z,51.86
2018-09-17T10:11:43.155Z,52.37
2018-09-17T10:12:43.146Z,51.81
2018-09-17T10:13:43.157Z,51.26
2018-09-17T10:14:43.167Z,50.29
2018-09-17T10:15:43.180Z,49.99
2018-09-17T10:16:43.191Z,50.09
2018-09-17T10:17:43.203Z,50.41
2018-09-17T10:18:43.216Z,49.15
2018-09-17T10:19:43.227Z,48.30
2018-09-17T10:20:43.238Z,48.44
2018-09-17T10:21:43.252Z,49.29
2018-09-17T10:22:43.261Z,50.07
2018-09-17T10:23:43.273Z,50.21
2018-09-17T10:24:43.285Z,49.24
2018-09-17T10:25:43.297Z,48.95
2018-09-17T10:26:43.309Z,49.05
2018-09-17T10:27:43.321Z,50.36
2018-09-17T10:28:43.333Z,50.19
2018-09-17T10:29:43.367Z,50.19
2018-09-17T10:30:43.358Z,50.16
2018-09-17T10:31:43.370Z,50.74
2018-09-17T10:32:43.382Z,50.19
2018-09-17T10:33:43.395Z,49.99
2018-09-17T10:34:43.405Z,49.82
2018-09-17T10:35:43.418Z,50.07
2018-09-17T10:36:43.432Z,50.53
2018-09-17T10:37:43.446Z,51.31
2018-09-17T10:38:43.454Z,52.54
2018-09-17T10:39:43.468Z,52.93
2018-09-17T10:40:43.479Z,52.83
2018-09-17T10:41:43.493Z,53.39
2018-09-17T10:42:43.501Z,54.13
2018-09-17T10:43:43.516Z,55.27
2018-09-17T10:44:43.524Z,56.14
2018-09-17T10:45:43.536Z,56.04
2018-09-17T10:46:43.545Z,56.02
2018-09-17T10:47:43.556Z,56.70
2018-09-17T10:48:43.567Z,56.60
2018-09-17T10:49:43.576Z,56.70
2018-09-17T10:50:43.589Z,56.21
2018-09-17T10:51:43.596Z,57.18
2018-09-17T10:52:43.606Z,57.28
2018-09-17T10:53:43.617Z,57.24
2018-09-17T10:54:43.626Z,57.82
2018-09-17T10:55:43.636Z,57.21
2018-09-17T10:56:43.644Z,58.18
2018-09-17T10:57:43.653Z,58.50
2018-09-17T10:58:43.663Z,58.63
2018-09-17T10:59:43.670Z,57.82
2018-09-17T11:00:43.680Z,57.54
2018-09-17T11:01:43.689Z,57.44
2018-09-17T11:02:43.695Z,57.63
2018-09-17T11:03:43.705Z,57.24
2018-09-17T11:04:43.713Z,57.28
2018-09-17T11:05:43.723Z,57.28
2018-09-17T11:06:43.728Z,57.15
2018-09-17T11:07:43.738Z,57.18
2018-09-17T11:08:43.743Z,57.56
2018-09-17T11:09:43.752Z,57.08
2018-09-17T11:10:43.759Z,57.08
2018-09-17T11:11:43.768Z,56.98
2018-09-17T11:12:43.775Z,57.37
2018-09-17T11:13:43.783Z,56.50
2018-09-17T11:14:43.788Z,56.50
2018-09-17T11:15:43.796Z,56.02
2018-09-17T11:16:43.803Z,57.37
2018-09-17T11:17:43.814Z,57.28
2018-09-17T11:18:43.821Z,57.18
2018-09-17T11:19:43.824Z,57.46
2018-09-17T11:20:43.831Z,57.28
2018-09-17T11:21:43.839Z,57.18
2018-09-17T11:22:43.845Z,57.34
2018-09-17T11:23:43.853Z,57.44
2018-09-17T11:24:43.859Z,57.63
2018-09-17T11:25:43.866Z,57.34
2018-09-17T11:26:43.872Z,57.82
2018-09-17T11:27:43.879Z,57.24
2018-09-17T11:28:43.886Z,57.24
2018-09-17T11:29:43.896Z,57.24
2018-09-17T11:30:43.900Z,56.47
2018-09-17T11:31:43.906Z,57.05
2018-09-17T11:32:43.912Z,56.86
2018-09-17T11:33:43.920Z,57.05
2018-09-17T11:34:43.924Z,56.95
2018-09-17T11:35:43.930Z,57.08
2018-09-17T11:36:43.938Z,56.30
2018-09-17T11:37:43.944Z,57.46
2018-09-17T11:38:43.950Z,56.70
2018-09-17T11:39:43.957Z,56.24
2018-09-17T11:40:43.963Z,56.24
2018-09-17T11:41:43.970Z,56.52
2018-09-17T11:42:43.975Z,54.98
2018-09-17T11:43:43.980Z,54.98
2018-09-17T11:44:43.991Z,55.36
2018-09-17T11:45:43.994Z,55.07
2018-09-17T11:46:44.000Z,54.98
2018-09-17T11:47:44.005Z,54.21
2018-09-17T11:48:44.012Z,54.59
2018-09-17T11:49:44.019Z,54.21
2018-09-17T11:50:44.025Z,54.11
2018-09-17T11:51:44.030Z,54.21
2018-09-17T11:52:44.038Z,54.11
2018-09-17T11:53:44.044Z,53.43
2018-09-17T11:54:44.048Z,54.30
2018-09-17T11:55:44.058Z,54.49
2018-09-17T11:56:44.063Z,54.11
2018-09-17T11:57:44.068Z,54.88
2018-09-17T11:58:44.073Z,54.88
2018-09-17T11:59:44.082Z,54.39
2018-09-17T12:00:44.086Z,54.39
2018-09-17T12:01:44.146Z,53.36
2018-09-17T12:02:44.098Z,53.07
2018-09-17T12:03:44.103Z,52.87
2018-09-17T12:04:44.111Z,53.17
2018-09-17T12:05:44.117Z,53.17
2018-09-17T12:06:44.121Z,52.78
2018-09-17T12:07:44.128Z,53.36
2018-09-17T12:08:44.133Z,52.80
2018-09-17T12:09:44.139Z,51.62
2018-09-17T12:10:44.145Z,50.84
2018-09-17T12:11:44.151Z,51.23
2018-09-17T12:12:44.158Z,51.30
2018-09-17T12:13:44.164Z,51.59
2018-09-17T12:14:44.170Z,52.95
2018-09-17T12:15:44.175Z,52.27
2018-09-17T12:16:44.181Z,52.75
2018-09-17T12:17:44.188Z,52.08
2018-09-17T12:18:44.194Z,52.39
2018-09-17T12:19:44.199Z,51.88
2018-09-17T12:20:44.207Z,50.92
2018-09-17T12:21:44.212Z,50.24
2018-09-17T12:22:44.218Z,49.87
2018-09-17T12:23:44.224Z,50.65
2018-09-17T12:24:44.229Z,51.10
2018-09-17T12:25:44.235Z,51.98
2018-09-17T12:26:44.241Z,52.95
2018-09-17T12:27:44.247Z,52.27
2018-09-17T12:28:44.253Z,52.36
2018-09-17T12:29:44.262Z,51.66
2018-09-17T12:30:44.263Z,52.46
2018-09-17T12:31:44.270Z,51.88
2018-09-17T12:32:44.277Z,50.82
2018-09-17T12:33:44.309Z,50.24
2018-09-17T12:34:44.288Z,49.85
2018-09-17T12:35:44.293Z,49.97
2018-09-17T12:36:44.299Z,48.59
2018-09-17T12:37:44.306Z,48.81
2018-09-17T12:38:44.308Z,48.42
2018-09-17T12:39:44.317Z,48.22
2018-09-17T12:40:44.322Z,48.52
2018-09-17T12:41:44.328Z,47.45
2018-09-17T12:42:44.332Z,48.03
2018-09-17T12:43:44.339Z,49.00
2018-09-17T12:44:44.347Z,48.90
2018-09-17T12:45:44.362Z,48.61
2018-09-17T12:46:44.356Z,49.02
2018-09-17T12:47:44.360Z,48.71
2018-09-17T12:48:44.367Z,47.55
2018-09-17T12:49:44.372Z,47.67
2018-09-17T12:50:44.448Z,48.25
2018-09-17T12:51:44.391Z,47.57
2018-09-17T12:52:44.388Z,47.38